createdAt,value
2023-04-28T00:01:19.780Z,48.20
2023-04-28T00:06:21.641Z,54.10
2023-04-28T00:11:23.342Z,56.20
2023-04-28T00:26:28.297Z,55.10
2023-04-28T00:31:30.092Z,59.40
2023-04-28T00:36:33.501Z,53.20
2023-04-28T00:41:35.697Z,55.10
2023-04-28T00:46:37.494Z,56.30
2023-04-28T00:51:39.223Z,54.00
2023-04-28T00:56:41.194Z,51.70
2023-04-28T01:01:43.913Z,55.90
2023-04-28T01:06:47.016Z,56.60
2023-04-28T01:11:48.762Z,56.50
2023-04-28T01:17:06.415Z,53.30
2023-04-28T01:22:10.804Z,51.40
2023-04-28T01:27:12.927Z,46.80
2023-04-28T01:32:16.109Z,48.20
2023-04-28T01:37:17.848Z,47.40
2023-04-28T01:42:19.678Z,46.20
2023-04-28T01:47:21.467Z,45.10
2023-04-28T01:52:24.379Z,45.10
2023-04-28T01:57:28.607Z,46.60
2023-04-28T02:02:31.538Z,44.50
2023-04-28T02:07:33.326Z,43.30
2023-04-28T02:17:36.671Z,47.10
2023-04-28T02:22:38.336Z,45.40
2023-04-28T02:27:41.625Z,52.40
2023-04-28T02:32:43.418Z,52.30
2023-04-28T02:37:45.228Z,50.10
2023-04-28T02:42:46.937Z,47.50
2023-04-28T02:47:48.727Z,49.20
2023-04-28T02:52:51.727Z,49.80
2023-04-28T02:57:53.552Z,55.60
2023-04-28T03:02:55.379Z,54.20
2023-04-28T03:07:57.650Z,54.50
2023-04-28T03:13:00.069Z,52.20
2023-04-28T03:18:01.896Z,53.40
2023-04-28T03:23:04.224Z,50.50
2023-04-28T03:28:06.164Z,51.10
2023-04-28T03:33:07.925Z,57.10
2023-04-28T03:38:09.938Z,55.20
2023-04-28T03:43:12.534Z,52.90
2023-04-28T03:48:19.932Z,47.00
2023-04-28T03:53:22.026Z,53.70
2023-04-28T03:58:23.937Z,51.20
2023-04-28T04:07:13.596Z,47.70
2023-04-28T04:12:15.497Z,44.80
2023-04-28T04:17:17.585Z,43.20
2023-04-28T04:22:19.470Z,41.10
2023-04-28T04:27:21.362Z,37.70
2023-04-28T04:32:23.237Z,41.60
2023-04-28T04:37:25.175Z,36.20
2023-04-28T04:42:33.095Z,37.60
2023-04-28T04:47:43.104Z,33.70
2023-04-28T04:52:45.354Z,34.60
2023-04-28T04:57:47.162Z,34.50
2023-04-28T05:02:51.854Z,35.10
2023-04-28T05:07:53.995Z,31.70
2023-04-28T05:12:56.249Z,36.50
2023-04-28T05:17:58.403Z,34.80
2023-04-28T05:23:00.451Z,34.10
2023-04-28T05:28:07.752Z,36.50
2023-04-28T05:33:09.859Z,37.60
2023-04-28T05:38:12.704Z,38.20
2023-04-28T05:43:16.846Z,40.40
2023-04-28T05:48:19.679Z,36.40
2023-04-28T05:53:21.824Z,40.30
2023-04-28T05:58:24.852Z,36.80
2023-04-28T06:03:28.064Z,39.70
2023-04-28T06:08:30.331Z,36.50
2023-04-28T06:13:32.293Z,36.80
2023-04-28T06:18:34.584Z,35.40
2023-04-28T06:23:38.963Z,36.60
2023-04-28T06:28:40.891Z,31.60
2023-04-28T06:33:43.073Z,24.80
2023-04-28T06:38:45.869Z,22.00
2023-04-28T06:43:47.758Z,18.30
2023-04-28T06:48:54.812Z,16.30
2023-04-28T06:53:56.833Z,16.10
2023-04-28T06:58:59.142Z,11.80
2023-04-28T07:04:00.960Z,11.00
2023-04-28T07:09:03.248Z,10.30
2023-04-28T07:14:04.940Z,10.70
2023-04-28T07:19:06.789Z,10.50
2023-04-28T07:24:08.548Z,9.60
2023-04-28T07:29:13.589Z,10.00
2023-04-28T07:34:15.741Z,8.30
2023-04-28T07:39:17.855Z,7.90
2023-04-28T07:44:20.013Z,7.00
2023-04-28T07:49:31.729Z,7.30
2023-04-28T07:54:35.104Z,7.00
2023-04-28T07:59:38.819Z,7.40
2023-04-28T08:04:40.857Z,6.00
2023-04-28T08:09:47.148Z,4.90
2023-04-28T08:14:48.928Z,4.90
2023-04-28T08:19:51.181Z,4.50
2023-04-28T08:24:53.043Z,4.50
2023-04-28T08:29:54.858Z,4.90
2023-04-28T08:34:56.629Z,5.10
2023-04-28T08:40:10.024Z,6.80
2023-04-28T08:45:15.731Z,4.50
2023-04-28T08:50:21.802Z,4.20
2023-04-28T08:55:24.947Z,5.10
2023-04-28T09:00:27.091Z,5.10
2023-04-28T09:05:28.895Z,3.90
2023-04-28T09:10:30.688Z,4.10
2023-04-28T09:15:34.566Z,4.10
2023-04-28T09:20:37.290Z,3.70
2023-04-28T09:25:39.005Z,4.10
2023-04-28T09:30:41.202Z,4.60
2023-04-28T09:35:45.902Z,4.90
2023-04-28T09:40:59.688Z,3.90
2023-04-28T09:46:04.522Z,4.40
2023-04-28T09:51:09.548Z,4.30
2023-04-28T09:56:12.814Z,6.10
2023-04-28T10:01:15.287Z,5.20
2023-04-28T10:06:17.414Z,4.90
2023-04-28T10:11:20.962Z,4.80
2023-04-28T10:16:23.873Z,5.40
2023-04-28T10:21:29.948Z,4.90
2023-04-28T10:26:50.456Z,4.50
2023-04-28T10:32:21.688Z,4.10
2023-04-28T10:38:02.229Z,3.30
2023-04-28T10:43:05.087Z,3.40
2023-04-28T10:48:06.894Z,3.90
2023-04-28T10:53:08.906Z,3.40
2023-04-28T10:58:17.539Z,3.40
2023-04-28T11:03:41.507Z,3.20
2023-04-28T11:08:43.228Z,3.50
2023-04-28T11:13:47.074Z,3.80
2023-04-28T11:18:56.736Z,3.30
2023-04-28T11:23:59.079Z,3.50
2023-04-28T11:29:00.896Z,4.00
2023-04-28T11:34:05.809Z,2.80
2023-04-28T11:39:12.333Z,2.90
2023-04-28T11:44:15.186Z,3.30
2023-04-28T11:49:17.968Z,3.50
2023-04-28T11:54:25.480Z,3.20
2023-04-28T11:59:33.880Z,2.70
2023-04-28T12:04:38.361Z,3.20
2023-04-28T12:09:45.162Z,3.40
2023-04-28T12:14:58.594Z,5.20
2023-04-28T12:20:02.712Z,3.40
2023-04-28T12:25:08.002Z,3.90
2023-04-28T12:30:21.997Z,3.70
2023-04-28T12:35:25.536Z,4.10
2023-04-28T12:40:27.515Z,4.10
2023-04-28T12:45:30.331Z,3.50
2023-04-28T12:50:33.327Z,3.90
2023-04-28T12:55:35.356Z,3.60
2023-04-28T13:00:37.096Z,2.60
2023-04-28T13:05:38.847Z,3.50
2023-04-28T13:10:40.883Z,6.30
2023-04-28T13:15:42.582Z,3.00
2023-04-28T13:20:44.536Z,3.30
2023-04-28T13:25:46.351Z,3.20
2023-04-28T13:30:48.043Z,2.80
2023-04-28T13:35:49.972Z,3.00
2023-04-28T13:40:52.964Z,3.20
2023-04-28T13:45:54.781Z,3.00
2023-04-28T13:50:56.612Z,3.20
2023-04-28T13:55:59.067Z,2.90
2023-04-28T14:01:01.344Z,3.00
2023-04-28T14:06:03.276Z,2.90
2023-04-28T14:11:05.148Z,2.40
2023-04-28T14:16:07.653Z,2.40
2023-04-28T14:21:09.328Z,2.50
2023-04-28T14:26:11.689Z,3.10
2023-04-28T14:31:13.499Z,2.40
2023-04-28T14:36:15.327Z,2.60
2023-04-28T14:41:17.036Z,2.30
2023-04-28T14:46:23.048Z,2.70
2023-04-28T14:51:26.099Z,2.40
2023-04-28T14:56:28.030Z,2.50
2023-04-28T15:01:30.525Z,2.60
2023-04-28T15:06:32.928Z,2.60
2023-04-28T15:11:34.671Z,2.40
2023-04-28T15:16:36.706Z,2.40
2023-04-28T15:21:39.360Z,2.40
2023-04-28T15:26:41.256Z,2.70
2023-04-28T15:31:43.415Z,1.90
2023-04-28T15:36:45.392Z,2.90
2023-04-28T15:41:47.897Z,3.30
2023-04-28T15:46:51.767Z,2.70
2023-04-28T15:51:53.518Z,2.50
2023-04-28T15:56:55.499Z,2.80
2023-04-28T16:01:57.257Z,3.30
2023-04-28T16:07:02.479Z,4.70
2023-04-28T16:12:04.698Z,12.30
2023-04-28T16:17:08.756Z,9.00
2023-04-28T16:22:10.524Z,2.60
2023-04-28T16:27:12.849Z,2.00
2023-04-28T16:32:15.799Z,3.10
2023-04-28T16:37:17.513Z,3.70
2023-04-28T16:42:21.039Z,3.30
2023-04-28T16:47:22.722Z,3.30
2023-04-28T16:52:24.507Z,3.60
2023-04-28T16:57:26.558Z,3.90
2023-04-28T17:02:29.636Z,3.90
2023-04-28T17:07:31.531Z,3.50
2023-04-28T17:12:33.259Z,4.10
2023-04-28T17:17:35.147Z,4.50
2023-04-28T17:22:37.057Z,7.60
2023-04-28T17:27:39.430Z,7.60
2023-04-28T17:32:41.616Z,5.00
2023-04-28T17:37:43.453Z,4.90
2023-04-28T17:42:45.306Z,4.00
2023-04-28T17:47:47.173Z,5.30
2023-04-28T17:52:49.266Z,6.60
2023-04-28T17:57:51.887Z,6.50
2023-04-28T18:02:55.229Z,6.20
2023-04-28T18:08:01.581Z,6.40
2023-04-28T18:13:03.453Z,7.70
2023-04-28T18:18:06.018Z,10.00
2023-04-28T18:23:08.103Z,7.00
2023-04-28T18:28:10.486Z,6.30
2023-04-28T18:33:12.385Z,10.00
2023-04-28T18:38:14.589Z,11.80
2023-04-28T18:43:16.628Z,14.90
2023-04-28T18:48:21.801Z,24.70
2023-04-28T18:53:23.709Z,27.90
2023-04-28T18:58:25.689Z,33.40
2023-04-28T19:03:28.238Z,16.00
2023-04-28T19:08:31.021Z,10.80
2023-04-28T19:13:34.345Z,12.20
2023-04-28T19:18:37.141Z,12.90
2023-04-28T19:23:41.931Z,13.30
2023-04-28T19:28:43.901Z,11.80
2023-04-28T19:33:45.662Z,14.20
2023-04-28T19:38:47.377Z,25.50
2023-04-28T19:43:49.295Z,38.10
2023-04-28T19:48:51.178Z,26.40
2023-04-28T19:53:55.228Z,28.90
2023-04-28T19:58:58.710Z,26.40
2023-04-28T20:04:00.970Z,26.80
2023-04-28T20:09:03.955Z,23.10
2023-04-28T20:14:05.790Z,22.90
2023-04-28T20:19:07.525Z,21.70
2023-04-28T20:24:09.271Z,22.40
2023-04-28T20:29:11.015Z,22.60
2023-04-28T20:34:13.926Z,29.00
2023-04-28T20:39:15.789Z,25.40
2023-04-28T20:44:18.484Z,23.20
2023-04-28T20:49:20.197Z,17.00
2023-04-28T20:54:23.337Z,19.80
2023-04-28T20:59:25.033Z,17.90
2023-04-28T21:04:28.013Z,22.30
2023-04-28T21:09:30.829Z,19.30
2023-04-28T21:14:38.876Z,22.10
2023-04-28T21:19:40.632Z,24.40
2023-04-28T21:24:42.467Z,23.20
2023-04-28T21:29:44.363Z,24.20
2023-04-28T21:34:48.979Z,24.20
2023-04-28T21:39:52.201Z,27.30
2023-04-28T21:44:55.215Z,24.60
2023-04-28T21:50:22.242Z,26.70
2023-04-28T21:55:24.644Z,27.20
2023-04-28T22:00:27.998Z,27.20
2023-04-28T22:05:29.765Z,25.60
2023-04-28T22:10:34.217Z,27.30
2023-04-28T22:15:36.301Z,29.20
2023-04-28T22:20:38.551Z,31.80
2023-04-28T22:25:40.382Z,28.20
2023-04-28T22:30:42.106Z,29.60
2023-04-28T22:35:43.878Z,30.10
2023-04-28T22:40:45.920Z,22.40
2023-04-28T22:45:47.698Z,28.80
2023-04-28T22:50:49.589Z,26.60
2023-04-28T22:55:51.378Z,21.20
2023-04-28T23:00:53.344Z,21.40
2023-04-28T23:05:55.061Z,22.60
2023-04-28T23:10:57.581Z,23.40
2023-04-28T23:16:01.502Z,24.20
2023-04-28T23:21:03.466Z,28.10
2023-04-28T23:26:05.562Z,30.90
2023-04-28T23:31:07.339Z,32.50
2023-04-28T23:36:09.120Z,34.10
2023-04-28T23:41:11.467Z,36.20
2023-04-28T23:46:15.068Z,38.30
2023-04-28T23:51:32.271Z,42.10
2023-04-28T23:56:34.108Z,34.40
